Tropical Cyclones
[Index]
Main Index Home Page Stock Weather Photos Extreme Storms Discussion Storm News and Storm Chasing Reports Tropical Cyclones / Hurricanes / Typhoons Weather Data and Links Wild Fires / Bushfires Weather Observation Techniques Weather Picture Catalogue Tornado Pictures and Reports Stock Video Footage and DVDs for sale
Season 2012-2013 Tropical Cyclone BOLDWIN Track Map
Season 2012-2013 Summaries: [BoM-AU] [JTWC-AU] [JTWC-SIO] [JTWC-SPAC] [JTWC-SH]
<<- Previous TC | JTWC 2012-2013 Season | Next TC ->>

click for intensity scale information  Lat/long Grid: Show Hide

 Date Labels: Show Hide

Joint Typhoon Warning Centre Cyclone Data

Name: BOLDWIN

20 Nov 2012 18:00 UTC to 25 Nov 2012 12:00 UTC

    date/time    lat    long     hPa   cat  kts
2012-11-20 18    9.8    82.9    1010         15          
2012-11-21 00    9.8    82.7    1010         15          
2012-11-21 06    9.8    82.5    1010         15          
2012-11-21 12    9.8    82.2    1007         20          
2012-11-21 18   10.1    82.0    1007         20          
2012-11-22 00    9.9    81.4    1007         20          
2012-11-22 06   10.3    80.8    1007         20          
2012-11-22 12   10.8    80.0    1007         20          
2012-11-22 18   11.5    79.3    1007         20          
2012-11-23 00   11.8    78.5    1004         25          
2012-11-23 06   11.9    78.1    1004         25          
2012-11-23 12   12.0    77.7    1004         25          
2012-11-23 18   12.4    77.1    1000         30          
2012-11-24 00   13.0    76.4     993    1    40          
2012-11-24 06   13.6    75.8     985    1    50          
2012-11-24 12   13.9    75.3     982    2    55          
2012-11-24 12   13.9    75.3     982    2    55          
2012-11-24 18   14.3    74.9     982    2    55          
2012-11-24 18   14.3    74.9     982    2    55          
2012-11-25 00   14.6    74.4     982    2    55          
2012-11-25 00   14.6    74.4     982    2    55          
2012-11-25 06   14.6    73.5     982    2    55          
2012-11-25 12   15.2    72.9    1000         30          
Winds are 1-min average.

Tropical cyclone tracks developed by Michael Bath using data from the Joint Typhoon Warning Centre Best Tracks and Google Maps.


[Australian Severe Weather index] [Copyright Notice] [Email Contacts] [Search This Site] [Privacy Policy]
Document: tropical_cyclone_boldwin.htm Updated: 28 June 2017